createdAt,value
2022-09-04T00:01:50.894Z,99806.88
2022-09-04T00:04:44.915Z,99815.53
2022-09-04T00:07:39.172Z,99814.81
2022-09-04T00:10:32.605Z,99817.63
2022-09-04T00:13:22.730Z,99813.34
2022-09-04T00:16:14.776Z,99822.34
2022-09-04T00:19:09.789Z,99817.47
2022-09-04T00:22:00.363Z,99821.19
2022-09-04T00:24:55.129Z,99826.50
2022-09-04T00:27:45.631Z,99823.06
2022-09-04T00:30:34.070Z,99827.56
2022-09-04T00:33:25.432Z,99831.22
2022-09-04T00:36:15.256Z,99832.13
2022-09-04T00:39:08.940Z,99833.19
2022-09-04T00:42:09.607Z,99827.88
2022-09-04T00:45:09.865Z,99822.78
2022-09-04T00:48:17.845Z,99836.84
2022-09-04T00:51:30.908Z,99835.28
2022-09-04T00:54:42.639Z,99838.94
2022-09-04T00:58:05.368Z,99845.09
2022-09-04T01:00:53.901Z,99847.78
2022-09-04T01:04:24.717Z,99848.63
2022-09-04T01:07:27.475Z,99854.03
2022-09-04T01:10:42.049Z,99863.63
2022-09-04T01:13:36.246Z,99865.41
2022-09-04T01:16:27.463Z,99868.03
2022-09-04T01:19:30.928Z,99870.53
2022-09-04T01:22:33.712Z,99870.41
2022-09-04T01:25:42.602Z,99865.94
2022-09-04T01:28:35.996Z,99874.47
2022-09-04T01:31:29.233Z,99875.44
2022-09-04T01:34:30.443Z,99877.16
2022-09-04T01:37:31.976Z,99876.34
2022-09-04T01:40:35.654Z,99875.53
2022-09-04T01:43:26.356Z,99873.00
2022-09-04T01:46:40.330Z,99874.28
2022-09-04T01:49:34.282Z,99887.41
2022-09-04T01:52:38.183Z,99879.81
2022-09-04T01:55:31.479Z,99879.06
2022-09-04T01:58:26.629Z,99878.34
2022-09-04T02:01:21.131Z,99883.66
2022-09-04T02:04:18.190Z,99877.63
2022-09-04T02:07:12.947Z,99877.84
2022-09-04T02:10:09.174Z,99883.22
2022-09-04T02:13:07.391Z,99889.41
2022-09-04T02:16:05.332Z,99893.66
2022-09-04T02:19:00.600Z,99890.13
2022-09-04T02:21:52.391Z,99891.03
2022-09-04T02:24:45.038Z,99890.13
2022-09-04T02:27:38.935Z,99890.13
2022-09-04T02:30:27.379Z,99888.66
2022-09-04T02:33:21.566Z,99888.66
2022-09-04T02:36:14.384Z,99882.00
2022-09-04T02:39:09.695Z,99880.53
2022-09-04T02:42:04.977Z,99881.47
2022-09-04T02:45:02.163Z,99878.00
2022-09-04T02:47:53.482Z,99881.34
2022-09-04T02:50:59.042Z,99877.81
2022-09-04T02:53:58.926Z,99884.50
2022-09-04T02:56:53.368Z,99892.91
2022-09-04T02:59:52.745Z,99892.59
2022-09-04T03:02:44.837Z,99896.78
2022-09-04T03:05:34.999Z,99898.34
2022-09-04T03:08:29.340Z,99902.63
2022-09-04T03:11:26.554Z,99898.34
2022-09-04T03:14:18.678Z,99908.88
2022-09-04T03:17:13.142Z,99909.09
2022-09-04T03:20:04.619Z,99911.97
2022-09-04T03:22:58.607Z,99912.41
2022-09-04T03:26:20.794Z,99919.81
2022-09-04T03:29:14.233Z,99920.72
2022-09-04T03:32:15.879Z,99928.44
2022-09-04T03:35:08.798Z,99920.31
2022-09-04T03:38:10.197Z,99918.22
2022-09-04T03:41:06.129Z,99926.38
2022-09-04T03:44:08.245Z,99926.16
2022-09-04T03:47:03.164Z,99917.41
2022-09-04T03:50:02.683Z,99927.84
2022-09-04T03:52:57.044Z,99930.53
2022-09-04T03:56:16.551Z,99934.91
2022-09-04T03:59:08.218Z,99925.31
2022-09-04T04:02:01.003Z,99937.44
2022-09-04T04:05:14.499Z,99930.53
2022-09-04T04:08:16.252Z,99936.38
2022-09-04T04:11:18.989Z,99935.66
2022-09-04T04:14:37.549Z,99936.38
2022-09-04T04:17:54.288Z,99941.59
2022-09-04T04:20:46.075Z,99940.53
2022-09-04T04:24:27.080Z,99943.66
2022-09-04T04:27:28.607Z,99939.50
2022-09-04T04:30:19.019Z,99954.06
2022-09-04T04:33:23.882Z,99958.66
2022-09-04T04:36:20.129Z,99963.25
2022-09-04T04:39:15.682Z,99966.06
2022-09-04T04:42:18.522Z,99968.75
2022-09-04T04:45:33.406Z,99968.84
2022-09-04T04:49:10.549Z,99972.63
2022-09-04T04:52:15.813Z,99970.00
2022-09-04T04:55:21.260Z,99978.75
2022-09-04T04:58:27.229Z,99980.22
2022-09-04T05:01:26.378Z,99986.47
2022-09-04T05:04:31.654Z,99999.69
2022-09-04T05:07:31.259Z,99996.22
2022-09-04T05:10:22.607Z,99998.44
2022-09-04T05:13:17.787Z,99996.56
2022-09-04T05:16:18.159Z,100006.91
2022-09-04T05:19:12.143Z,100011.25
2022-09-04T05:22:09.346Z,100021.56
2022-09-04T05:25:06.551Z,100019.06
2022-09-04T05:28:03.494Z,100023.97
2022-09-04T05:30:57.128Z,100028.25
2022-09-04T05:33:52.629Z,100032.44
2022-09-04T05:36:48.558Z,100035.69
2022-09-04T05:39:47.886Z,100031.94
2022-09-04T05:42:45.444Z,100052.47
2022-09-04T05:45:47.271Z,100054.66
2022-09-04T05:48:43.434Z,100054.91
2022-09-04T05:51:54.166Z,100062.34
2022-09-04T05:54:57.488Z,100057.97
2022-09-04T05:57:56.063Z,100064.91
2022-09-04T06:00:48.290Z,100066.06
2022-09-04T06:04:11.059Z,100060.94
2022-09-04T06:07:04.830Z,100046.22
2022-09-04T06:10:00.730Z,100051.38
2022-09-04T06:13:24.524Z,100048.13
2022-09-04T06:16:28.287Z,100047.84
2022-09-04T06:19:48.497Z,100059.81
2022-09-04T06:23:02.441Z,100055.00
2022-09-04T06:26:22.470Z,100059.25
2022-09-04T06:29:28.827Z,100054.59
2022-09-04T06:32:56.618Z,100053.06
2022-09-04T06:36:21.535Z,100052.03
2022-09-04T06:39:41.733Z,100061.72
2022-09-04T06:42:49.569Z,100065.09
2022-09-04T06:45:49.370Z,100059.53
2022-09-04T06:48:48.107Z,100065.44
2022-09-04T06:51:58.048Z,100072.06
2022-09-04T06:54:54.012Z,100066.78
2022-09-04T06:58:05.299Z,100065.78
2022-09-04T07:00:56.021Z,100081.31
2022-09-04T07:03:57.082Z,100081.47
2022-09-04T07:07:00.143Z,100082.22
2022-09-04T07:09:49.758Z,100086.88
2022-09-04T07:13:23.542Z,100090.59
2022-09-04T07:16:33.754Z,100094.88
2022-09-04T07:20:08.390Z,100099.16
2022-09-04T07:23:17.328Z,100098.69
2022-09-04T07:26:17.247Z,100097.84
2022-09-04T07:29:25.111Z,100101.69
2022-09-04T07:32:18.766Z,100100.59
2022-09-04T07:35:11.503Z,100107.81
2022-09-04T07:38:04.609Z,100104.56
2022-09-04T07:40:56.430Z,100121.66
2022-09-04T07:43:54.595Z,100123.66
2022-09-04T07:46:48.254Z,100124.97
2022-09-04T07:49:38.200Z,100133.41
2022-09-04T07:52:43.561Z,100139.78
2022-09-04T07:55:41.374Z,100142.81
2022-09-04T07:59:20.412Z,100150.13
2022-09-04T08:02:35.621Z,100145.13
2022-09-04T08:05:25.458Z,100149.91
2022-09-04T08:08:57.177Z,100152.38
2022-09-04T08:11:54.731Z,100147.91
2022-09-04T08:14:55.930Z,100155.72
2022-09-04T08:18:21.266Z,100168.06
2022-09-04T08:21:18.732Z,100163.88
2022-09-04T08:24:47.218Z,100164.09
2022-09-04T08:28:17.665Z,100168.41
2022-09-04T08:31:09.079Z,100168.47
2022-09-04T08:34:25.437Z,100175.06
2022-09-04T08:37:21.440Z,100177.41
2022-09-04T08:40:42.983Z,100178.81
2022-09-04T08:44:06.434Z,100183.44
2022-09-04T08:47:31.865Z,100183.84
2022-09-04T08:51:15.788Z,100185.13
2022-09-04T08:54:58.983Z,100192.84
2022-09-04T08:58:17.374Z,100192.84
2022-09-04T09:01:38.669Z,100189.44
2022-09-04T09:04:41.709Z,100198.03
2022-09-04T09:08:09.354Z,100187.84
2022-09-04T09:11:44.441Z,100191.03
2022-09-04T09:15:28.089Z,100181.13
2022-09-04T09:18:35.737Z,100179.09
2022-09-04T09:21:31.985Z,100188.78
2022-09-04T09:25:15.621Z,100193.53
2022-09-04T09:29:06.261Z,100201.94
2022-09-04T09:32:45.698Z,100197.94
2022-09-04T09:36:17.415Z,100198.03
2022-09-04T09:39:35.254Z,100181.13
2022-09-04T09:42:59.169Z,100190.78
2022-09-04T09:46:54.318Z,100188.09
2022-09-04T09:50:28.294Z,100180.25
2022-09-04T09:54:05.956Z,100184.47
2022-09-04T09:57:41.199Z,100185.16
2022-09-04T10:00:30.694Z,100172.13
2022-09-04T10:04:16.265Z,100176.81
2022-09-04T10:07:48.069Z,100164.50
2022-09-04T10:11:20.499Z,100153.22
2022-09-04T10:15:08.827Z,100169.13
2022-09-04T10:18:48.023Z,100168.66
2022-09-04T10:22:14.731Z,100160.22
2022-09-04T10:26:03.738Z,100159.84
2022-09-04T10:29:44.741Z,100160.22
2022-09-04T10:33:16.514Z,100165.47
2022-09-04T10:36:15.240Z,100156.06
2022-09-04T10:39:40.194Z,100164.63
2022-09-04T10:42:37.137Z,100168.75
2022-09-04T10:45:27.543Z,100155.66
2022-09-04T10:48:59.813Z,100161.88
2022-09-04T10:52:24.643Z,100142.28
2022-09-04T10:55:26.619Z,100146.50
2022-09-04T10:58:30.817Z,100151.13
2022-09-04T11:02:13.552Z,100147.22
2022-09-04T11:05:41.544Z,100142.25
2022-09-04T11:09:00.640Z,100148.50
2022-09-04T11:12:09.409Z,100147.47
2022-09-04T11:15:19.244Z,100148.84
2022-09-04T11:18:55.205Z,100154.13
2022-09-04T11:22:19.873Z,100162.59
2022-09-04T11:26:07.130Z,100149.28
2022-09-04T11:29:21.580Z,100150.56
2022-09-04T11:32:32.060Z,100158.16
2022-09-04T11:36:00.681Z,100154.81
2022-09-04T11:39:45.266Z,100160.09
2022-09-04T11:42:41.200Z,100152.72
2022-09-04T11:45:59.591Z,100142.81
2022-09-04T11:49:12.682Z,100142.25
2022-09-04T11:52:16.410Z,100147.59
2022-09-04T11:55:28.871Z,100141.66
2022-09-04T11:58:49.975Z,100155.84
2022-09-04T12:02:01.167Z,100146.25
2022-09-04T12:05:36.292Z,100148.91
2022-09-04T12:08:42.124Z,100154.22
2022-09-04T12:12:00.430Z,100150.91
2022-09-04T12:15:24.904Z,100149.88
2022-09-04T12:18:44.710Z,100149.56
2022-09-04T12:22:03.582Z,100147.59
2022-09-04T12:25:18.814Z,100147.34
2022-09-04T12:28:53.433Z,100149.63
2022-09-04T12:32:37.679Z,100137.19
2022-09-04T12:36:21.130Z,100134.25
2022-09-04T12:40:27.635Z,100132.06
2022-09-04T12:43:42.709Z,100125.56
2022-09-04T12:46:57.685Z,100134.97
2022-09-04T12:50:16.203Z,100138.69
2022-09-04T12:53:26.649Z,100135.66
2022-09-04T12:56:22.810Z,100140.41
2022-09-04T12:59:27.912Z,100142.63
2022-09-04T13:02:28.632Z,100141.38
2022-09-04T13:05:41.770Z,100149.34
2022-09-04T13:08:48.285Z,100138.31
2022-09-04T13:11:48.664Z,100141.38
2022-09-04T13:15:08.772Z,100140.72
2022-09-04T13:18:12.615Z,100143.00
2022-09-04T13:21:08.997Z,100141.16
2022-09-04T13:24:16.117Z,100135.09
2022-09-04T13:27:21.470Z,100130.16
2022-09-04T13:30:11.744Z,100137.06
2022-09-04T13:33:12.912Z,100137.50
2022-09-04T13:36:11.310Z,100139.44
2022-09-04T13:39:49.269Z,100139.91
2022-09-04T13:43:08.203Z,100136.84
2022-09-04T13:45:59.323Z,100140.16
2022-09-04T13:48:52.244Z,100116.38
2022-09-04T13:51:44.832Z,100126.38
2022-09-04T13:54:35.531Z,100138.69
2022-09-04T13:57:28.005Z,100140.53
2022-09-04T14:00:17.476Z,100136.41
2022-09-04T14:03:11.648Z,100132.81
2022-09-04T14:06:10.141Z,100129.97
2022-09-04T14:09:05.598Z,100135.00
2022-09-04T14:12:13.570Z,100137.31
2022-09-04T14:15:40.278Z,100125.94
2022-09-04T14:18:47.999Z,100130.13
2022-09-04T14:22:09.432Z,100129.97
2022-09-04T14:25:06.582Z,100104.91
2022-09-04T14:28:13.966Z,100115.06
2022-09-04T14:31:10.670Z,100100.34
2022-09-04T14:34:05.391Z,100114.19
2022-09-04T14:37:08.132Z,100110.88
2022-09-04T14:40:02.915Z,100112.72
2022-09-04T14:42:58.117Z,100121.03
2022-09-04T14:46:06.613Z,100129.50
2022-09-04T14:49:02.145Z,100121.53
2022-09-04T14:51:52.425Z,100135.47
2022-09-04T14:54:46.761Z,100123.16
2022-09-04T14:57:38.782Z,100125.75
2022-09-04T15:00:29.915Z,100136.38
2022-09-04T15:03:21.012Z,100127.16
2022-09-04T15:06:16.162Z,100129.41
2022-09-04T15:09:21.118Z,100122.00
2022-09-04T15:12:25.033Z,100131.75
2022-09-04T15:15:18.837Z,100126.31
2022-09-04T15:18:16.113Z,100124.19
2022-09-04T15:21:17.260Z,100124.28
2022-09-04T15:24:18.258Z,100112.69
2022-09-04T15:27:13.881Z,100112.91
2022-09-04T15:30:07.109Z,100114.56
2022-09-04T15:33:05.333Z,100116.84
2022-09-04T15:36:05.368Z,100129.41
2022-09-04T15:38:55.334Z,100122.91
2022-09-04T15:41:46.016Z,100118.00
2022-09-04T15:44:40.154Z,100101.56
2022-09-04T15:47:47.568Z,100118.22
2022-09-04T15:50:38.922Z,100120.28
2022-09-04T15:53:29.417Z,100117.72
2022-09-04T15:56:36.910Z,100118.59
2022-09-04T15:59:32.354Z,100096.31
2022-09-04T16:02:36.415Z,100093.38
2022-09-04T16:05:28.363Z,100096.53
2022-09-04T16:08:23.605Z,100103.13
2022-09-04T16:11:22.436Z,100097.50
2022-09-04T16:14:17.427Z,100097.22
2022-09-04T16:17:12.058Z,100102.66
2022-09-04T16:20:08.943Z,100104.66
2022-09-04T16:23:01.808Z,100116.50
2022-09-04T16:25:51.800Z,100107.44
2022-09-04T16:28:46.517Z,100106.56
2022-09-04T16:31:35.853Z,100098.59
2022-09-04T16:34:27.636Z,100108.78
2022-09-04T16:37:21.834Z,100099.84
2022-09-04T16:40:25.700Z,100097.13
2022-09-04T16:43:22.848Z,100100.13
2022-09-04T16:46:15.176Z,100097.16
2022-09-04T16:49:08.246Z,100100.13
2022-09-04T16:51:59.366Z,100094.44
2022-09-04T16:54:51.809Z,100090.03
2022-09-04T16:57:49.519Z,100084.28
2022-09-04T17:01:13.716Z,100093.00
2022-09-04T17:04:21.660Z,100094.03
2022-09-04T17:07:21.036Z,100098.72
2022-09-04T17:10:25.752Z,100092.19
2022-09-04T17:13:27.975Z,100073.38
2022-09-04T17:16:21.871Z,100084.03
2022-09-04T17:19:13.937Z,100096.03
2022-09-04T17:28:59.806Z,100089.16
2022-09-04T17:29:03.303Z,100091.06
2022-09-04T17:32:41.117Z,100096.75
2022-09-04T17:40:41.261Z,100089.31
2022-09-04T17:40:52.535Z,100101.97
2022-09-04T17:42:04.638Z,100094.25
2022-09-04T17:45:03.466Z,100111.78
2022-09-04T17:48:02.273Z,100110.31
2022-09-04T17:50:53.832Z,100111.81
2022-09-04T17:53:48.207Z,100107.63
2022-09-04T17:56:40.440Z,100112.31
2022-09-04T17:59:35.374Z,100107.78
2022-09-04T18:02:28.842Z,100132.91
2022-09-04T18:05:21.781Z,100122.19
2022-09-04T18:08:14.561Z,100120.78
2022-09-04T18:11:07.207Z,100130.69
2022-09-04T18:14:01.192Z,100144.88
2022-09-04T18:17:11.606Z,100145.16
2022-09-04T18:20:11.081Z,100142.81
2022-09-04T18:23:50.843Z,100155.00
2022-09-04T18:26:42.373Z,100155.97
2022-09-04T18:32:55.674Z,100153.72
2022-09-04T18:37:26.905Z,100161.00
2022-09-04T18:37:27.098Z,100166.34
2022-09-04T18:39:25.429Z,100169.34
2022-09-04T18:50:23.192Z,100177.88
2022-09-04T18:50:31.761Z,100168.66
2022-09-04T18:50:52.510Z,100169.00
2022-09-04T18:52:12.297Z,100180.97
2022-09-04T18:55:03.615Z,100183.41
2022-09-04T18:57:58.864Z,100172.53
2022-09-04T19:00:50.516Z,100200.00
2022-09-04T19:03:43.277Z,100188.72
2022-09-04T19:06:38.542Z,100194.84
2022-09-04T19:09:48.540Z,100209.66
2022-09-04T19:12:58.684Z,100192.41
2022-09-04T19:15:58.324Z,100197.31
2022-09-04T19:18:51.214Z,100202.22
2022-09-04T19:21:42.544Z,100203.53
2022-09-04T19:24:35.754Z,100209.84
2022-09-04T19:27:30.449Z,100204.97
2022-09-04T19:30:23.723Z,100193.94
2022-09-04T19:33:17.870Z,100192.25
2022-09-04T19:36:10.586Z,100201.19
2022-09-04T19:45:56.309Z,100196.22
2022-09-04T19:46:02.731Z,100201.59
2022-09-04T19:46:31.710Z,100204.19
2022-09-04T19:51:30.895Z,100190.28
2022-09-04T19:53:32.087Z,100189.69
2022-09-04T19:55:55.504Z,100197.44
2022-09-04T19:58:51.631Z,100201.13
2022-09-04T20:01:45.006Z,100196.00
2022-09-04T20:04:37.218Z,100192.03
2022-09-04T20:07:42.413Z,100191.44
2022-09-04T20:10:39.564Z,100193.81
2022-09-04T20:13:34.832Z,100207.75
2022-09-04T20:20:04.225Z,100200.59
2022-09-04T20:23:00.251Z,100196.81
2022-09-04T20:25:58.099Z,100195.25
2022-09-04T20:29:03.176Z,100201.69
2022-09-04T20:33:18.568Z,100197.75
2022-09-04T20:36:09.581Z,100188.22
2022-09-04T20:39:02.063Z,100200.13
2022-09-04T20:41:53.077Z,100184.53
2022-09-04T20:45:44.131Z,100195.28
2022-09-04T20:52:40.935Z,100194.88
2022-09-04T20:52:57.775Z,100195.25
2022-09-04T20:54:56.203Z,100200.91
2022-09-04T21:03:14.758Z,100182.69
2022-09-04T21:03:21.972Z,100190.09
2022-09-04T21:04:54.293Z,100191.38
2022-09-04T21:07:45.692Z,100197.13
2022-09-04T21:10:36.922Z,100194.75
2022-09-04T21:13:30.741Z,100198.31
2022-09-04T21:16:29.433Z,100191.69
2022-09-04T21:20:02.953Z,100199.03
2022-09-04T21:23:15.046Z,100198.09
2022-09-04T21:26:09.818Z,100197.13
2022-09-04T21:29:25.080Z,100210.22
2022-09-04T21:32:47.052Z,100206.19
2022-09-04T21:35:38.997Z,100210.97
2022-09-04T21:39:00.320Z,100218.38
2022-09-04T21:42:11.317Z,100218.38
2022-09-04T21:45:28.525Z,100212.91
2022-09-04T21:48:41.124Z,100213.84
2022-09-04T21:51:54.702Z,100218.88
2022-09-04T21:57:23.876Z,100235.06
2022-09-04T22:02:36.342Z,100231.47
2022-09-04T22:02:40.620Z,100233.03
2022-09-04T22:05:12.495Z,100245.97
2022-09-04T22:13:29.942Z,100236.72
2022-09-04T22:13:40.215Z,100239.44
2022-09-04T22:14:44.096Z,100245.50
2022-09-04T22:17:57.137Z,100243.00
2022-09-04T22:20:55.435Z,100234.31
2022-09-04T22:24:09.201Z,100240.00
2022-09-04T22:28:07.819Z,100247.84
2022-09-04T22:31:38.879Z,100247.16
2022-09-04T22:35:11.596Z,100245.38
2022-09-04T22:38:32.926Z,100248.94
2022-09-04T22:41:43.200Z,100244.63
2022-09-04T22:44:42.035Z,100249.41
2022-09-04T22:47:43.292Z,100242.03
2022-09-04T22:50:49.974Z,100244.84
2022-09-04T22:53:57.165Z,100246.63
2022-09-04T22:56:54.218Z,100248.69
2022-09-04T23:00:11.906Z,100253.06
2022-09-04T23:03:29.762Z,100256.84
2022-09-04T23:11:08.346Z,100250.78
2022-09-04T23:13:53.398Z,100258.53
2022-09-04T23:14:06.343Z,100251.97
2022-09-04T23:17:19.186Z,100261.81
2022-09-04T23:26:33.825Z,100261.78
2022-09-04T23:26:49.985Z,100263.47
2022-09-04T23:27:41.221Z,100266.09
2022-09-04T23:30:33.270Z,100270.16
2022-09-04T23:33:49.787Z,100282.28
2022-09-04T23:36:55.344Z,100277.72
2022-09-04T23:40:31.857Z,100276.34
2022-09-04T23:44:05.941Z,100260.28
2022-09-04T23:47:46.510Z,100267.06
2022-09-04T23:50:28.710Z,100262.38
2022-09-04T23:53:27.709Z,100267.53
2022-09-04T23:56:23.040Z,100265.66
2022-09-04T23:59:36.830Z,100266.59
